Time;durP1;ratioP1;P1;durP2;ratioP2;P2;SDS_P1;SDS_P2;PMS_P1;PMS_P2;Temp;Humidity;BMP_temperature;BMP_pressure;BME280_temperature;BME280_humidity;BME280_pressure;Samples;Min_cycle;Max_cycle;Signal;HPM_P1;HPM_P2
2022/12/12 00:01:19;;;;;;;31.23;11.60;;;-0.70;99.90;;;;;;5072384;28;20129;-85
2022/12/12 00:03:45;;;;;;;24.17;9.53;;;-0.70;99.90;;;;;;5071979;28;20044;-85
2022/12/12 00:06:11;;;;;;;31.27;11.70;;;-2.00;99.90;;;;;;5071944;28;20036;-85
2022/12/12 00:08:36;;;;;;;25.83;10.40;;;-0.60;99.90;;;;;;5055442;28;20036;-85
2022/12/12 00:11:04;;;;;;;21.10;9.20;;;-0.60;99.90;;;;;;5071828;28;20048;-86
2022/12/12 00:13:29;;;;;;;19.13;8.60;;;-0.50;99.90;;;;;;5071843;28;20537;-86
2022/12/12 00:15:55;;;;;;;20.20;9.00;;;-0.20;99.90;;;;;;5071761;28;20132;-86
2022/12/12 00:18:21;;;;;;;18.83;8.80;;;-0.40;99.90;;;;;;5071988;28;20501;-81
2022/12/12 00:20:51;;;;;;;23.60;9.77;;;-0.50;99.90;;;;;;5091986;28;20039;-81
2022/12/12 00:23:17;;;;;;;18.90;7.13;;;-0.50;99.90;;;;;;5074998;28;20381;-81
2022/12/12 00:25:43;;;;;;;20.27;8.17;;;-0.50;99.90;;;;;;5075023;28;20101;-81
2022/12/12 00:28:08;;;;;;;19.47;8.87;;;-0.50;99.90;;;;;;5091762;28;20044;-81
2022/12/12 00:30:34;;;;;;;21.37;8.20;;;-0.50;99.90;;;;;;5091772;28;20050;-81
2022/12/12 00:33:00;;;;;;;15.37;7.73;;;-0.50;99.90;;;;;;5092048;28;20044;-81
2022/12/12 00:35:26;;;;;;;24.47;8.70;;;-0.40;99.90;;;;;;5074759;28;20117;-81
2022/12/12 00:37:51;;;;;;;21.80;8.97;;;-0.40;99.90;;;;;;5074943;28;20066;-82
2022/12/12 00:40:17;;;;;;;19.97;8.80;;;-0.40;99.90;;;;;;5075447;28;20044;-82
2022/12/12 00:42:43;;;;;;;19.77;8.87;;;-0.40;99.90;;;;;;5091975;28;20047;-82
2022/12/12 00:45:09;;;;;;;15.97;7.73;;;1.30;99.90;;;;;;5091775;28;20123;-82
2022/12/12 00:47:34;;;;;;;19.53;8.80;;;-0.40;99.90;;;;;;5075270;28;20165;-82
2022/12/12 00:50:00;;;;;;;22.43;9.83;;;-0.40;99.90;;;;;;5058394;28;20123;-81
2022/12/12 00:52:26;;;;;;;19.03;9.47;;;-0.40;99.90;;;;;;5058250;28;20501;-81
2022/12/12 00:54:52;;;;;;;23.33;10.07;;;-0.40;99.90;;;;;;5071194;28;20041;-81
2022/12/12 00:57:17;;;;;;;19.90;8.13;;;-0.40;99.90;;;;;;5054828;28;20048;-81
2022/12/12 00:59:43;;;;;;;16.83;8.00;;;-0.40;99.90;;;;;;5071097;28;20478;-81
2022/12/12 01:02:09;;;;;;;18.17;8.50;;;-0.40;99.90;;;;;;5071375;28;20051;-81
2022/12/12 01:04:34;;;;;;;21.60;8.77;;;-0.40;99.90;;;;;;5071161;28;20402;-81
2022/12/12 01:07:00;;;;;;;16.70;7.97;;;-0.40;99.90;;;;;;5054760;28;20037;-81
2022/12/12 01:09:26;;;;;;;18.33;8.07;;;0.50;99.90;;;;;;5071385;28;20083;-81
2022/12/12 01:11:51;;;;;;;15.77;7.63;;;-0.40;99.90;;;;;;5071330;28;20501;-81
2022/12/12 01:14:17;;;;;;;16.47;8.23;;;-0.40;99.90;;;;;;5071031;28;20659;-81
2022/12/12 01:16:43;;;;;;;16.73;8.37;;;-0.30;99.90;;;;;;5074381;28;20048;-81
2022/12/12 01:19:08;;;;;;;23.13;9.33;;;-0.30;99.90;;;;;;5074336;28;20055;-81
2022/12/12 01:21:35;;;;;;;20.67;8.10;;;-0.30;99.90;;;;;;5091169;28;20086;-81
2022/12/12 01:24:01;;;;;;;21.50;9.63;;;-0.40;99.90;;;;;;5091438;28;20505;-82
2022/12/12 01:26:27;;;;;;;18.40;8.13;;;-0.40;99.90;;;;;;5091447;28;20044;-82
2022/12/12 01:28:53;;;;;;;20.47;9.20;;;-0.30;99.90;;;;;;5074930;28;20110;-82
2022/12/12 01:31:19;;;;;;;22.97;9.10;;;-0.30;99.90;;;;;;5091316;28;20423;-82
2022/12/12 01:33:45;;;;;;;22.20;9.17;;;-0.30;99.90;;;;;;5091269;28;20044;-82
2022/12/12 01:36:15;;;;;;;22.60;9.27;;;-0.90;99.90;;;;;;5074392;28;20075;-82
2022/12/12 01:38:49;;;;;;;23.07;8.53;;;-0.30;99.90;;;;;;5091243;28;20076;-82
2022/12/12 01:41:15;;;;;;;21.67;8.93;;;-0.30;99.90;;;;;;5091383;28;20032;-81
2022/12/12 01:43:41;;;;;;;18.60;8.17;;;-0.40;99.90;;;;;;5090985;28;20123;-81
2022/12/12 01:46:35;;;;;;;21.60;9.13;;;0.10;99.90;;;;;;5074097;28;20482;-81
2022/12/12 01:49:23;;;;;;;21.03;9.10;;;-0.40;99.90;;;;;;5096263;22;20443;-81
2022/12/12 01:51:53;;;;;;;22.00;9.13;;;0.40;99.90;;;;;;5099782;28;20093;-81
2022/12/12 01:54:23;;;;;;;23.63;10.33;;;-0.40;99.90;;;;;;5091216;28;20457;-81
2022/12/12 01:56:52;;;;;;;18.93;9.13;;;-0.40;99.90;;;;;;5092347;28;20051;-85
2022/12/12 01:59:21;;;;;;;15.17;7.60;;;-0.40;99.90;;;;;;5094788;28;20391;-85
2022/12/12 02:01:47;;;;;;;21.80;8.80;;;-0.50;99.90;;;;;;5096003;28;20452;-86
2022/12/12 02:04:14;;;;;;;19.93;8.70;;;-0.40;99.90;;;;;;5094896;28;20044;-86
2022/12/12 02:06:40;;;;;;;24.33;9.43;;;-0.50;99.90;;;;;;5077886;28;20043;-86
2022/12/12 02:09:09;;;;;;;16.87;7.90;;;-0.40;99.90;;;;;;5077909;28;20078;-86
2022/12/12 02:11:58;;;;;;;20.03;7.93;;;-0.40;99.90;;;;;;5077487;28;20047;-81
2022/12/12 02:14:28;;;;;;;17.13;7.93;;;1.90;99.90;;;;;;5094050;28;20044;-81
2022/12/12 02:17:06;;;;;;;20.53;8.03;;;-0.50;99.90;;;;;;5099551;28;20118;-81
2022/12/12 02:19:57;;;;;;;22.40;9.10;;;-0.50;99.90;;;;;;5097637;28;20050;-81
2022/12/12 02:23:20;;;;;;;20.33;8.83;;;-0.40;99.90;;;;;;5097746;28;20039;-81
2022/12/12 02:26:06;;;;;;;21.73;9.13;;;-0.40;99.90;;;;;;5036280;28;20041;-81
2022/12/12 02:29:28;;;;;;;17.58;7.85;;;-0.40;99.90;;;;;;5019825;28;20593;-81
2022/12/12 02:32:11;;;;;;;19.60;8.73;;;-0.40;99.90;;;;;;5036053;28;20074;-81
2022/12/12 02:35:03;;;;;;;16.60;7.67;;;-0.40;99.90;;;;;;5090396;28;20063;-81
2022/12/12 02:37:37;;;;;;;20.90;8.27;;;-0.40;99.90;;;;;;5114598;28;20104;-81
2022/12/12 02:40:15;;;;;;;19.60;9.53;;;-0.40;99.90;;;;;;5114771;28;20047;-81
2022/12/12 02:42:49;;;;;;;19.37;7.97;;;-0.40;99.90;;;;;;5097523;28;20043;-81
2022/12/12 02:45:23;;;;;;;19.73;7.63;;;-0.40;99.90;;;;;;5114210;28;20040;-81
2022/12/12 02:48:02;;;;;;;18.53;8.57;;;-0.40;99.90;;;;;;5097610;28;20043;-85
2022/12/12 02:50:30;;;;;;;19.53;8.67;;;-0.40;99.90;;;;;;5097023;28;20060;-86
2022/12/12 02:52:59;;;;;;;16.53;7.90;;;-0.40;99.90;;;;;;5093916;28;20097;-85
2022/12/12 02:55:24;;;;;;;25.27;9.10;;;-0.40;99.90;;;;;;5093937;28;20048;-85
2022/12/12 02:57:53;;;;;;;18.83;8.13;;;-0.60;99.90;;;;;;5076717;28;20525;-86
2022/12/12 03:00:20;;;;;;;18.17;7.57;;;-0.50;99.90;;;;;;5113883;28;20051;-86
2022/12/12 03:02:46;;;;;;;21.00;8.07;;;-0.50;99.90;;;;;;5096573;28;20039;-86
2022/12/12 03:08:38;;;;;;;14.97;7.07;;;-0.50;99.90;;;;;;5113319;28;20043;-81
2022/12/12 03:11:13;;;;;;;19.80;8.17;;;-0.50;99.90;;;;;;5096718;28;20048;-81
2022/12/12 03:14:23;;;;;;;21.10;8.07;;;-0.50;99.90;;;;;;5113942;28;20047;-81
2022/12/12 03:17:04;;;;;;;20.03;8.60;;;-0.50;99.90;;;;;;5055003;28;20037;-81
2022/12/12 03:19:37;;;;;;;17.13;7.63;;;-0.50;99.90;;;;;;5038508;28;20514;-81
2022/12/12 03:22:33;;;;;;;21.00;7.50;;;-0.50;99.90;;;;;;5092765;28;20044;-82
2022/12/12 03:25:23;;;;;;;20.17;7.77;;;-0.60;99.90;;;;;;5113585;28;20040;-82
2022/12/12 03:28:21;;;;;;;18.73;7.80;;;-0.60;99.90;;;;;;5114245;28;20039;-83
2022/12/12 03:30:54;;;;;;;16.80;7.07;;;-0.60;99.90;;;;;;5096194;28;20059;-82
2022/12/12 03:33:35;;;;;;;23.30;9.90;;;-0.60;99.90;;;;;;5113761;28;20039;-82
2022/12/12 03:36:51;;;;;;;21.23;9.13;;;-0.60;99.90;;;;;;5096748;28;20035;-82
2022/12/12 03:39:24;;;;;;;23.37;8.73;;;-0.50;99.90;;;;;;5018299;28;20053;-85
2022/12/12 03:42:07;;;;;;;24.87;8.60;;;-0.50;99.90;;;;;;5103652;28;20075;-86
2022/12/12 03:44:42;;;;;;;19.57;9.23;;;-0.50;99.90;;;;;;5113101;28;20481;-86
2022/12/12 03:47:17;;;;;;;17.87;7.40;;;-0.10;99.90;;;;;;5113371;28;20122;-86
2022/12/12 03:49:56;;;;;;;15.37;7.37;;;-0.50;99.90;;;;;;5095724;28;20124;-86
2022/12/12 03:52:29;;;;;;;18.37;7.43;;;0.50;99.90;;;;;;5097505;28;20145;-86
2022/12/12 03:55:05;;;;;;;14.90;6.63;;;-0.50;99.90;;;;;;5075634;28;20071;-81
2022/12/12 03:57:41;;;;;;;;;;;-0.50;99.90;;;;;;5093046;28;20093;-81
2022/12/12 04:00:13;;;;;;;17.83;7.47;;;-0.50;99.90;;;;;;5092564;28;20296;-81
2022/12/12 04:02:50;;;;;;;20.40;8.20;;;-0.50;99.90;;;;;;5092248;28;20130;-81
2022/12/12 04:06:40;;;;;;;22.23;8.80;;;1.20;99.90;;;;;;5092225;28;20044;-81
2022/12/12 04:14:51;;;;;;;16.17;7.23;;;-0.40;99.90;;;;;;5092108;28;20055;-81
2022/12/12 04:17:21;;;;;;;20.20;9.27;;;-0.60;99.90;;;;;;5083264;28;20447;-81
2022/12/12 04:28:32;;;;;;;27.73;9.63;;;-0.30;99.90;;;;;;5112663;28;20043;-82
2022/12/12 04:31:03;;;;;;;20.53;9.43;;;-0.10;99.90;;;;;;5112227;28;20584;-82
2022/12/12 04:33:39;;;;;;;19.87;9.13;;;-0.30;99.90;;;;;;5112386;28;20079;-82
2022/12/12 04:36:07;;;;;;;17.13;8.47;;;-0.30;99.90;;;;;;5112283;28;20043;-82
2022/12/12 04:38:34;;;;;;;18.40;8.33;;;-0.30;99.90;;;;;;5095442;28;20039;-82
2022/12/12 04:41:02;;;;;;;21.00;9.37;;;0.10;99.90;;;;;;5095611;28;20039;-82
2022/12/12 04:43:37;;;;;;;18.10;8.10;;;-0.30;99.90;;;;;;5112172;28;20047;-81
2022/12/12 04:46:13;;;;;;;19.37;7.70;;;-0.30;99.90;;;;;;5111909;28;20051;-81
2022/12/12 04:48:50;;;;;;;22.70;9.48;;;-0.30;99.90;;;;;;5095064;28;20362;-81
2022/12/12 04:51:41;;;;;;;22.10;8.30;;;0.80;99.90;;;;;;5088226;28;20040;-81
2022/12/12 04:54:33;;;;;;;20.67;9.90;;;0.60;99.90;;;;;;5091497;28;20044;-81
2022/12/12 04:57:03;;;;;;;21.00;8.47;;;-0.30;99.90;;;;;;5074667;28;20040;-81
2022/12/12 04:59:29;;;;;;;20.27;7.97;;;0.50;99.90;;;;;;5074948;28;20044;-81
2022/12/12 05:02:19;;;;;;;19.67;8.30;;;0.20;99.90;;;;;;5091622;28;20040;-86
2022/12/12 05:05:02;;;;;;;23.10;8.60;;;-0.20;99.90;;;;;;5092015;28;20046;-86
2022/12/12 05:07:36;;;;;;;19.60;8.60;;;-0.40;99.90;;;;;;5091777;28;20106;-86
2022/12/12 05:10:06;;;;;;;17.07;8.40;;;-0.20;99.90;;;;;;5074537;28;20040;-86
2022/12/12 05:12:39;;;;;;;20.33;9.13;;;-0.50;99.90;;;;;;5091465;28;20510;-86
2022/12/12 05:15:05;;;;;;;16.93;7.80;;;-0.20;99.90;;;;;;5091159;28;20647;-86
2022/12/12 05:17:38;;;;;;;19.97;8.20;;;-0.20;99.90;;;;;;5101359;28;20035;-81
2022/12/12 05:20:05;;;;;;;20.13;9.47;;;-0.40;99.90;;;;;;5111782;28;20127;-81
2022/12/12 05:22:30;;;;;;;19.80;8.70;;;-0.20;99.90;;;;;;5094807;28;20036;-81
2022/12/12 05:24:56;;;;;;;17.40;8.43;;;-0.20;99.90;;;;;;5094582;28;20397;-81
2022/12/12 05:27:22;;;;;;;19.47;8.83;;;-0.20;99.90;;;;;;5111460;28;20040;-81
2022/12/12 05:29:47;;;;;;;18.30;8.33;;;-0.20;99.90;;;;;;5094701;28;20075;-81
2022/12/12 05:32:13;;;;;;;20.17;8.20;;;-0.20;99.90;;;;;;5098460;28;20453;-81
2022/12/12 05:34:39;;;;;;;17.93;7.83;;;-0.20;99.90;;;;;;5115678;28;20043;-81
2022/12/12 05:37:05;;;;;;;15.70;7.60;;;-0.20;99.90;;;;;;5115332;28;20476;-81
2022/12/12 05:39:30;;;;;;;17.13;7.53;;;-0.20;99.90;;;;;;5115482;28;20046;-81
2022/12/12 05:41:56;;;;;;;21.00;9.20;;;-0.20;99.90;;;;;;5098601;28;20509;-81
2022/12/12 05:44:21;;;;;;;18.63;8.13;;;-0.20;99.90;;;;;;5098479;28;20401;-81
2022/12/12 05:46:47;;;;;;;15.13;6.80;;;-0.20;99.90;;;;;;5098157;28;20122;-81
2022/12/12 05:49:13;;;;;;;20.87;8.80;;;-0.20;99.90;;;;;;5098126;28;20059;-81
2022/12/12 05:51:39;;;;;;;18.83;7.97;;;-0.20;99.90;;;;;;5105340;28;20043;-81
2022/12/12 05:54:04;;;;;;;17.43;8.23;;;-0.20;99.90;;;;;;5077969;28;20379;-81
2022/12/12 05:56:30;;;;;;;18.00;7.70;;;-0.20;99.90;;;;;;5077937;28;20039;-81
2022/12/12 05:58:56;;;;;;;19.30;8.67;;;0.50;99.90;;;;;;5077807;28;20044;-81
2022/12/12 06:01:21;;;;;;;19.50;7.80;;;-0.20;99.90;;;;;;5094959;28;20119;-81
2022/12/12 06:03:47;;;;;;;17.77;8.20;;;0.00;99.90;;;;;;5094668;28;20442;-80
2022/12/12 06:06:13;;;;;;;18.57;8.20;;;1.50;99.90;;;;;;5078059;28;20047;-81
2022/12/12 06:08:38;;;;;;;16.03;8.53;;;-0.20;99.90;;;;;;5094809;28;20036;-86
2022/12/12 06:11:06;;;;;;;19.37;8.33;;;-0.20;99.90;;;;;;5094793;28;20184;-86
2022/12/12 06:13:32;;;;;;;18.77;9.03;;;-0.20;99.90;;;;;;5077582;28;20075;-86
2022/12/12 06:15:57;;;;;;;17.50;7.63;;;-0.20;99.90;;;;;;5077509;28;20512;-86
2022/12/12 06:18:23;;;;;;;19.20;7.87;;;-0.20;99.90;;;;;;5111748;28;20145;-86
2022/12/12 06:20:49;;;;;;;18.00;8.17;;;-0.20;99.90;;;;;;5114672;28;20039;-86
2022/12/12 06:23:14;;;;;;;17.23;7.37;;;-0.10;99.90;;;;;;5097636;28;20480;-81
2022/12/12 06:25:40;;;;;;;16.27;7.33;;;-0.20;99.90;;;;;;5097637;28;20073;-81
2022/12/12 06:28:06;;;;;;;16.73;9.10;;;-0.20;99.90;;;;;;5097514;28;20078;-81
2022/12/12 06:30:31;;;;;;;16.27;7.53;;;-0.30;99.90;;;;;;5097504;28;20039;-81
2022/12/12 06:32:57;;;;;;;16.53;7.67;;;1.10;99.90;;;;;;5097765;28;20100;-81
2022/12/12 06:35:23;;;;;;;18.17;8.83;;;-0.30;99.90;;;;;;5097760;28;20050;-81
2022/12/12 06:37:48;;;;;;;17.03;8.37;;;-0.20;99.90;;;;;;5097487;28;20093;-81
2022/12/12 06:40:15;;;;;;;18.70;8.33;;;0.20;99.90;;;;;;5097248;28;20035;-81
2022/12/12 06:42:41;;;;;;;15.87;7.37;;;-0.20;99.90;;;;;;5096639;28;20388;-81
2022/12/12 06:45:07;;;;;;;18.80;8.50;;;-0.30;99.90;;;;;;5114206;28;20036;-81
2022/12/12 06:47:32;;;;;;;19.13;8.70;;;-0.20;99.90;;;;;;5097114;28;20090;-81
2022/12/12 06:49:58;;;;;;;15.73;6.47;;;-0.10;99.90;;;;;;5113652;28;20087;-81
2022/12/12 06:52:24;;;;;;;17.13;7.23;;;0.90;99.90;;;;;;5081033;28;20075;-81
2022/12/12 06:54:49;;;;;;;15.83;7.00;;;-0.20;99.90;;;;;;5076847;28;20450;-81
2022/12/12 06:57:15;;;;;;;18.27;8.13;;;-0.30;99.90;;;;;;5076806;28;20044;-86
2022/12/12 06:59:41;;;;;;;20.53;9.07;;;-0.30;99.90;;;;;;5076676;28;20036;-86
2022/12/12 07:02:09;;;;;;;13.47;7.10;;;-0.30;99.90;;;;;;5093590;28;20043;-86
2022/12/12 07:04:35;;;;;;;16.87;7.87;;;-0.30;99.90;;;;;;5093823;28;20048;-86
2022/12/12 07:07:01;;;;;;;17.47;7.80;;;-0.30;99.90;;;;;;5093806;28;20517;-86
2022/12/12 07:09:27;;;;;;;17.40;7.30;;;-0.20;99.90;;;;;;5093480;28;20285;-83
2022/12/12 07:11:52;;;;;;;18.67;8.17;;;0.60;99.90;;;;;;5076691;28;20044;-82
2022/12/12 07:14:18;;;;;;;17.50;7.67;;;0.90;99.90;;;;;;5093695;28;20032;-82
2022/12/12 07:16:44;;;;;;;15.83;7.73;;;-0.20;99.90;;;;;;5080210;28;20043;-82
2022/12/12 07:19:10;;;;;;;16.27;8.23;;;0.70;99.90;;;;;;5096834;28;20035;-82
2022/12/12 07:21:35;;;;;;;16.30;7.87;;;1.30;99.90;;;;;;5130857;27;20045;-82
2022/12/12 07:24:01;;;;;;;17.37;8.20;;;-0.20;99.90;;;;;;5113570;28;20035;-82
2022/12/12 07:26:27;;;;;;;13.47;7.23;;;0.70;99.90;;;;;;5113535;28;20039;-82
2022/12/12 07:28:52;;;;;;;16.63;8.43;;;-0.20;99.90;;;;;;5096379;28;20040;-82
2022/12/12 07:31:20;;;;;;;17.07;7.83;;;-0.20;99.90;;;;;;5113380;28;20549;-86
2022/12/12 07:33:47;;;;;;;13.97;7.20;;;-0.20;99.90;;;;;;5113239;28;20043;-86
2022/12/12 07:36:14;;;;;;;15.20;7.40;;;-0.20;99.90;;;;;;5113510;28;20086;-86
2022/12/12 07:38:40;;;;;;;17.03;8.87;;;0.60;99.90;;;;;;5113316;28;20063;-86
2022/12/12 07:41:09;;;;;;;15.07;7.10;;;0.10;99.90;;;;;;5113338;28;20040;-86
2022/12/12 07:43:39;;;;;;;20.33;8.20;;;-0.20;99.90;;;;;;5113179;28;20044;-86
2022/12/12 07:46:09;;;;;;;15.33;7.67;;;0.10;99.90;;;;;;5113069;28;20039;-86
2022/12/12 07:48:35;;;;;;;15.30;7.30;;;-0.20;99.90;;;;;;5096173;28;20043;-83
2022/12/12 07:51:02;;;;;;;16.23;8.87;;;-0.20;99.90;;;;;;5091444;28;20083;-82
2022/12/12 07:53:28;;;;;;;18.90;7.87;;;-0.20;99.90;;;;;;5059306;28;20125;-82
2022/12/12 07:55:55;;;;;;;14.00;7.20;;;-0.20;99.90;;;;;;5092669;28;20036;-82
2022/12/12 07:58:21;;;;;;;16.10;8.00;;;-0.20;99.90;;;;;;5092647;28;20047;-82
2022/12/12 08:00:47;;;;;;;17.37;8.07;;;0.00;99.90;;;;;;5092677;28;20050;-83
2022/12/12 08:03:13;;;;;;;15.10;7.57;;;-0.20;99.90;;;;;;5092775;28;20040;-81
2022/12/12 08:05:42;;;;;;;15.67;6.80;;;-0.20;99.90;;;;;;5075740;28;20064;-86
2022/12/12 08:08:08;;;;;;;11.27;6.40;;;-0.20;99.90;;;;;;5075422;28;20055;-86
2022/12/12 08:10:37;;;;;;;16.77;8.50;;;-0.20;99.90;;;;;;5092270;28;20093;-86
2022/12/12 08:13:03;;;;;;;11.50;6.87;;;-0.20;99.90;;;;;;5092466;28;20452;-86
2022/12/12 08:15:28;;;;;;;15.10;8.50;;;0.60;99.90;;;;;;5092184;28;20132;-86
2022/12/12 08:17:54;;;;;;;15.87;7.20;;;-0.10;99.90;;;;;;5085322;28;20046;-86
2022/12/12 08:20:21;;;;;;;11.57;6.77;;;-0.10;99.90;;;;;;5092150;28;20083;-86
2022/12/12 08:22:47;;;;;;;17.07;7.83;;;-0.10;99.90;;;;;;5092066;28;20105;-86
2022/12/12 08:25:13;;;;;;;13.97;6.63;;;0.00;99.90;;;;;;5075051;28;20036;-87
2022/12/12 08:27:39;;;;;;;17.43;7.57;;;0.00;99.90;;;;;;5091901;28;20063;-86
2022/12/12 08:30:06;;;;;;;17.20;8.00;;;0.00;99.90;;;;;;5091900;28;20490;-86
2022/12/12 08:32:32;;;;;;;18.80;8.73;;;0.00;99.90;;;;;;5091919;28;20089;-86
2022/12/12 08:34:58;;;;;;;17.60;8.03;;;2.20;99.90;;;;;;5091751;28;20062;-86
2022/12/12 08:37:24;;;;;;;16.67;6.73;;;0.10;99.90;;;;;;5092091;28;20082;-81
2022/12/12 08:39:50;;;;;;;16.40;7.90;;;0.10;99.90;;;;;;5091710;28;20432;-81
2022/12/12 08:42:16;;;;;;;15.77;7.30;;;0.10;99.90;;;;;;5091715;28;20044;-81
2022/12/12 08:44:41;;;;;;;16.37;7.77;;;0.20;99.90;;;;;;5091654;28;20092;-81
2022/12/12 08:47:07;;;;;;;16.57;7.27;;;0.50;99.90;;;;;;5092174;28;20040;-81
2022/12/12 08:49:33;;;;;;;15.33;7.77;;;0.20;99.90;;;;;;5091395;28;20052;-81
2022/12/12 08:51:59;;;;;;;16.37;7.03;;;0.30;99.90;;;;;;5091383;28;20047;-81
2022/12/12 08:54:25;;;;;;;15.03;7.57;;;0.30;99.90;;;;;;5091551;28;20043;-81
2022/12/12 08:56:50;;;;;;;14.93;6.87;;;1.10;99.90;;;;;;5075065;28;20440;-82
2022/12/12 08:59:16;;;;;;;15.67;7.00;;;0.30;99.90;;;;;;5091666;28;20048;-82
2022/12/12 09:01:42;;;;;;;19.23;7.73;;;0.30;99.90;;;;;;5091628;28;20043;-82
2022/12/12 09:04:08;;;;;;;14.47;8.47;;;;;;;;;;5091588;28;20044;-82
2022/12/12 09:06:34;;;;;;;13.33;6.83;;;0.70;99.90;;;;;;5091039;28;20040;-82
2022/12/12 09:09:00;;;;;;;15.90;7.20;;;0.40;99.90;;;;;;5074683;28;20046;-82
2022/12/12 09:11:27;;;;;;;17.43;8.00;;;1.90;99.90;;;;;;5091933;28;20123;-82
2022/12/12 09:13:53;;;;;;;15.33;7.07;;;1.30;99.90;;;;;;5091368;28;20050;-81
2022/12/12 09:16:20;;;;;;;13.63;7.00;;;0.50;99.90;;;;;;5091231;28;20446;-81
2022/12/12 09:18:46;;;;;;;14.27;6.90;;;0.60;99.90;;;;;;5074085;28;20040;-81
2022/12/12 09:21:12;;;;;;;14.23;6.97;;;0.70;99.90;;;;;;5091186;28;20101;-81
2022/12/12 09:23:37;;;;;;;17.80;7.37;;;0.70;99.90;;;;;;5057931;28;20036;-81
2022/12/12 09:26:04;;;;;;;17.77;7.73;;;0.80;99.90;;;;;;5091104;28;20181;-81
2022/12/12 09:28:30;;;;;;;14.67;7.50;;;0.90;99.90;;;;;;5091191;28;20036;-86
2022/12/12 09:30:56;;;;;;;15.40;7.27;;;0.90;99.90;;;;;;5057621;28;20044;-86
2022/12/12 09:33:22;;;;;;;14.30;7.53;;;;;;;;;;5091032;28;20044;-86
2022/12/12 09:35:56;;;;;;;17.07;7.37;;;1.00;99.90;;;;;;5074422;28;20044;-86
2022/12/12 09:38:22;;;;;;;18.50;7.00;;;0.80;99.90;;;;;;5074378;28;20083;-86
2022/12/12 09:41:01;;;;;;;15.40;7.17;;;0.90;99.90;;;;;;5091302;28;20454;-86
2022/12/12 09:43:38;;;;;;;15.10;7.80;;;0.90;99.90;;;;;;5091135;28;20477;-81
2022/12/12 09:46:32;;;;;;;16.13;7.17;;;1.00;99.90;;;;;;5091038;28;20040;-81
2022/12/12 09:49:12;;;;;;;19.27;8.30;;;0.90;99.90;;;;;;5090750;28;20083;-81
2022/12/12 09:51:41;;;;;;;15.40;6.70;;;1.00;99.90;;;;;;5100525;28;20054;-81
2022/12/12 09:54:11;;;;;;;21.37;8.00;;;1.10;99.90;;;;;;5111307;28;20531;-81
2022/12/12 09:56:47;;;;;;;14.67;6.63;;;1.00;99.90;;;;;;5111262;28;20047;-81
2022/12/12 09:59:18;;;;;;;18.03;7.13;;;1.00;99.90;;;;;;5094265;28;20500;-81
2022/12/12 10:02:00;;;;;;;16.33;7.47;;;2.00;99.90;;;;;;5094630;28;20278;-82
2022/12/12 10:04:58;;;;;;;18.43;8.20;;;1.20;99.90;;;;;;5112012;28;20094;-82
2022/12/12 10:07:39;;;;;;;13.53;6.73;;;1.30;99.90;;;;;;5111443;28;20046;-82
2022/12/12 10:10:13;;;;;;;16.93;7.83;;;1.30;99.90;;;;;;5111325;28;20481;-83
2022/12/12 10:12:39;;;;;;;15.80;7.13;;;1.40;99.90;;;;;;5094230;28;20039;-83
2022/12/12 10:15:11;;;;;;;17.77;7.27;;;1.40;99.90;;;;;;5111223;28;20050;-83
2022/12/12 10:17:41;;;;;;;15.97;7.10;;;1.40;99.90;;;;;;5112289;28;20496;-81
2022/12/12 10:20:20;;;;;;;13.43;6.70;;;1.30;99.90;;;;;;5097830;28;20047;-82
2022/12/12 10:22:51;;;;;;;17.17;7.57;;;3.00;99.90;;;;;;5115040;28;20040;-81
2022/12/12 10:25:38;;;;;;;15.40;7.20;;;1.50;99.90;;;;;;5098053;28;20048;-81
2022/12/12 10:28:13;;;;;;;17.20;7.73;;;1.30;99.90;;;;;;5114609;28;20088;-81
2022/12/12 10:30:50;;;;;;;15.80;7.57;;;1.30;99.90;;;;;;5114558;28;20044;-81
2022/12/12 10:33:40;;;;;;;16.97;7.77;;;3.10;99.90;;;;;;5114621;28;20481;-81
2022/12/12 10:36:19;;;;;;;17.80;7.50;;;1.50;99.90;;;;;;5114522;28;20116;-81
2022/12/12 10:38:59;;;;;;;15.50;6.70;;;1.60;99.90;;;;;;5114286;28;20461;-81
2022/12/12 10:41:36;;;;;;;15.40;7.43;;;1.70;99.90;;;;;;5114385;28;20036;-82
2022/12/12 10:44:18;;;;;;;;;;;1.70;99.90;;;;;;5115071;28;20036;-82
2022/12/12 10:47:02;;;;;;;18.20;7.70;;;1.70;99.90;;;;;;5114323;28;19915;-81
2022/12/12 10:49:29;;;;;;;15.20;7.80;;;2.70;99.90;;;;;;5114258;28;20055;-82
2022/12/12 10:51:56;;;;;;;16.83;7.40;;;1.70;99.90;;;;;;5102150;28;20071;-81
2022/12/12 10:54:26;;;;;;;17.27;7.90;;;1.70;99.90;;;;;;5077515;28;20036;-81
2022/12/12 10:57:05;;;;;;;16.30;8.70;;;3.10;99.90;;;;;;5093651;28;20078;-81
2022/12/12 10:59:38;;;;;;;20.50;8.23;;;1.90;99.90;;;;;;5076598;28;20101;-81
2022/12/12 11:02:25;;;;;;;17.63;8.33;;;2.50;99.90;;;;;;5060211;28;20434;-81
2022/12/12 11:05:04;;;;;;;14.67;7.27;;;2.80;99.90;;;;;;5093806;28;20417;-81
2022/12/12 11:07:36;;;;;;;16.60;7.70;;;2.80;99.90;;;;;;5093678;28;20028;-81
2022/12/12 11:10:12;;;;;;;19.73;8.10;;;2.50;99.90;;;;;;5093478;28;20599;-81
2022/12/12 11:12:38;;;;;;;18.10;7.25;;;2.50;99.90;;;;;;5076559;28;20090;-81
2022/12/12 11:15:13;;;;;;;15.40;7.40;;;2.30;99.90;;;;;;5076712;28;20087;-81
2022/12/12 11:17:38;;;;;;;18.90;8.23;;;2.30;99.90;;;;;;5087427;28;20040;-81
2022/12/12 11:20:07;;;;;;;18.63;8.37;;;2.10;99.90;;;;;;5096558;28;20050;-81
2022/12/12 11:22:37;;;;;;;19.58;8.80;;;2.10;99.90;;;;;;5113563;28;20039;-81
2022/12/12 11:25:04;;;;;;;16.65;7.40;;;2.00;99.90;;;;;;5113766;28;20431;-82
2022/12/12 11:27:47;;;;;;;16.45;7.88;;;2.80;99.90;;;;;;5114035;28;20079;-84
2022/12/12 11:30:43;;;;;;;20.13;8.45;;;2.00;99.90;;;;;;5114142;28;20066;-83
2022/12/12 11:33:20;;;;;;;18.97;8.20;;;2.00;99.90;;;;;;5097072;28;20470;-84
2022/12/12 11:35:52;;;;;;;15.05;7.25;;;2.80;99.90;;;;;;5114338;28;20035;-84
2022/12/12 11:38:26;;;;;;;17.80;8.00;;;2.10;99.90;;;;;;5081072;28;20059;-84
2022/12/12 11:41:01;;;;;;;18.25;8.07;;;2.20;99.90;;;;;;5096702;28;20043;-85
2022/12/12 11:43:35;;;;;;;20.97;8.73;;;2.20;99.90;;;;;;5096703;28;20377;-85
2022/12/12 11:46:04;;;;;;;16.60;7.85;;;2.30;99.90;;;;;;5112990;28;20473;-85
2022/12/12 11:48:52;;;;;;;17.27;7.70;;;2.60;99.90;;;;;;5095565;28;20100;-85
2022/12/12 11:51:32;;;;;;;19.13;9.02;;;2.80;99.90;;;;;;5089075;28;20452;-85
2022/12/12 11:53:59;;;;;;;16.45;7.70;;;2.80;99.90;;;;;;5075688;28;20051;-85
2022/12/12 11:56:37;;;;;;;17.45;8.68;;;2.70;99.90;;;;;;5092661;28;20559;-84
2022/12/12 11:59:29;;;;;;;19.52;7.53;;;2.60;99.90;;;;;;5076438;28;20142;-83
2022/12/12 12:01:55;;;;;;;17.40;8.00;;;2.50;99.90;;;;;;5093244;28;20042;-83
2022/12/12 12:04:43;;;;;;;19.90;8.43;;;2.50;99.90;;;;;;5093196;28;20044;-83
2022/12/12 12:07:50;;;;;;;16.65;8.05;;;2.40;99.90;;;;;;5093150;28;20173;-83
2022/12/12 12:10:35;;;;;;;19.83;8.13;;;2.40;99.90;;;;;;5054125;28;20098;-83
2022/12/12 12:13:25;;;;;;;15.40;7.05;;;2.30;99.90;;;;;;5076483;28;20450;-83
2022/12/12 12:16:07;;;;;;;20.95;8.52;;;2.30;99.90;;;;;;5093040;28;20131;-83
2022/12/12 12:18:57;;;;;;;16.08;7.95;;;2.30;99.90;;;;;;5092726;28;20040;-83
2022/12/12 12:21:28;;;;;;;24.80;9.20;;;2.30;99.90;;;;;;5107459;28;20426;-83
2022/12/12 12:24:24;;;;;;;13.32;6.90;;;2.20;99.90;;;;;;5092647;28;20505;-83
2022/12/12 12:27:06;;;;;;;15.60;7.53;;;2.20;99.90;;;;;;5093009;28;20035;-83
2022/12/12 12:29:59;;;;;;;15.25;7.45;;;2.20;99.90;;;;;;5075792;28;20078;-83
2022/12/12 12:32:31;;;;;;;17.30;7.57;;;2.10;99.90;;;;;;5092152;28;20048;-82
2022/12/12 12:35:07;;;;;;;16.47;7.57;;;2.00;99.90;;;;;;5075020;28;20047;-82
2022/12/12 12:37:35;;;;;;;18.77;7.72;;;1.90;99.90;;;;;;5074977;28;20485;-82
2022/12/12 12:40:08;;;;;;;17.23;7.20;;;1.90;99.90;;;;;;5074060;28;20051;-82
2022/12/12 12:43:36;;;;;;;16.13;6.90;;;1.90;99.90;;;;;;5092294;28;20036;-82
2022/12/12 12:46:32;;;;;;;17.67;8.00;;;1.90;99.90;;;;;;5050510;28;20040;-82
2022/12/12 12:49:12;;;;;;;15.37;7.20;;;1.90;99.90;;;;;;5092159;28;20048;-83
2022/12/12 12:51:51;;;;;;;15.57;6.93;;;1.80;99.90;;;;;;5101862;28;20062;-83
2022/12/12 12:54:27;;;;;;;14.73;6.83;;;1.80;99.90;;;;;;5112735;28;20052;-83
2022/12/12 12:56:53;;;;;;;;;;;1.80;99.90;;;;;;5113007;28;20043;-83
2022/12/12 12:59:24;;;;;;;13.70;6.40;;;1.80;99.90;;;;;;5112569;28;19933;-83
2022/12/12 13:01:54;;;;;;;14.53;6.27;;;2.90;99.90;;;;;;5112472;28;20044;-83
2022/12/12 13:04:30;;;;;;;12.13;5.43;;;1.70;99.90;;;;;;5112042;28;20489;-85
2022/12/12 13:07:06;;;;;;;14.15;5.85;;;1.90;99.90;;;;;;5095100;28;20496;-86
2022/12/12 13:09:47;;;;;;;;;;;1.60;99.90;;;;;;5112711;28;20568;-86
2022/12/12 13:12:31;;;;;;;12.80;6.57;;;1.70;99.90;;;;;;5112030;28;20266;-85
2022/12/12 13:14:58;;;;;;;14.93;6.70;;;1.80;99.90;;;;;;5094786;28;20048;-82
2022/12/12 13:17:52;;;;;;;16.13;7.07;;;1.10;99.90;;;;;;5102816;28;20115;-82
2022/12/12 13:20:23;;;;;;;13.00;5.50;;;1.90;99.90;;;;;;5091363;28;20153;-82
2022/12/12 13:22:55;;;;;;;15.60;6.30;;;1.80;99.90;;;;;;5091245;28;20050;-82
2022/12/12 13:25:46;;;;;;;16.13;6.60;;;1.70;99.90;;;;;;5091260;28;20046;-82
2022/12/12 13:28:20;;;;;;;16.02;7.43;;;1.70;99.90;;;;;;5091352;28;20036;-82